Time;durP1;ratioP1;P1;durP2;ratioP2;P2;SDS_P1;SDS_P2;PMS_P1;PMS_P2;Temp;Humidity;BMP_temperature;BMP_pressure;BME280_temperature;BME280_humidity;BME280_pressure;Samples;Min_cycle;Max_cycle;Signal;HPM_P1;HPM_P2
2022/04/22 00:01:13;;;;;;;35.60;22.77;;;;;;;5.15;100.00;99867.23;1844676;77;21016;-71
2022/04/22 00:03:41;;;;;;;41.90;25.12;;;;;;;5.14;100.00;99868.13;1844943;77;21037;-70
2022/04/22 00:06:09;;;;;;;38.20;23.85;;;;;;;5.13;100.00;99862.52;1844631;77;22357;-71
2022/04/22 00:08:37;;;;;;;39.27;23.47;;;;;;;5.12;100.00;99856.86;1844661;77;21025;-71
2022/04/22 00:13:53;;;;;;;47.85;26.07;;;;;;;5.12;100.00;99855.55;1844663;77;21012;-70
2022/04/22 00:16:21;;;;;;;41.70;24.87;;;;;;;5.11;100.00;99864.28;1844181;77;21029;-70
2022/04/22 00:18:48;;;;;;;40.55;24.47;;;;;;;5.07;100.00;99853.48;1844521;77;21032;-70
2022/04/22 00:21:16;;;;;;;36.88;23.57;;;;;;;5.09;100.00;99858.23;1844230;77;21792;-70
2022/04/22 00:23:43;;;;;;;35.50;21.30;;;;;;;5.08;100.00;99864.32;1844348;77;21016;-70
2022/04/22 00:26:11;;;;;;;41.83;25.23;;;;;;;5.10;100.00;99865.16;1844347;77;21480;-71
2022/04/22 00:28:39;;;;;;;40.52;24.10;;;;;;;5.09;100.00;99863.45;1844318;77;21058;-71
2022/04/22 00:31:08;;;;;;;37.20;22.85;;;;;;;5.10;100.00;99863.84;1837029;77;21036;-70
2022/04/22 00:33:35;;;;;;;38.83;24.07;;;;;;;5.05;100.00;99865.24;1821390;78;21233;-69
2022/04/22 00:36:02;;;;;;;37.10;22.50;;;;;;;5.04;100.00;99858.77;1821090;77;21144;-70
2022/04/22 00:38:30;;;;;;;32.55;20.75;;;;;;;5.03;100.00;99863.55;1821041;78;21099;-69
2022/04/22 00:40:57;;;;;;;37.03;22.93;;;;;;;5.02;100.00;99862.70;1820915;78;21071;-70
2022/04/22 00:43:26;;;;;;;38.10;23.40;;;;;;;5.02;100.00;99863.16;1821102;78;21040;-71
2022/04/22 00:45:54;;;;;;;37.33;24.20;;;;;;;5.03;100.00;99858.34;1820874;78;21214;-70
2022/04/22 00:48:22;;;;;;;36.45;23.65;;;;;;;5.01;100.00;99859.66;1818429;78;21483;-71
2022/04/22 00:50:49;;;;;;;41.37;24.27;;;;;;;5.03;100.00;99858.34;1817898;77;21020;-70
2022/04/22 00:53:16;;;;;;;34.30;21.02;;;;;;;5.03;100.00;99859.64;1817858;78;21029;-70
2022/04/22 00:55:45;;;;;;;34.67;21.97;;;;;;;5.02;100.00;99859.23;1817426;78;21048;-70
2022/04/22 00:58:13;;;;;;;39.70;23.77;;;;;;;5.00;100.00;99869.70;1817844;78;21024;-69
2022/04/22 01:00:40;;;;;;;36.03;20.85;;;;;;;4.97;100.00;99864.55;1817430;78;21104;-70
2022/04/22 01:03:08;;;;;;;34.58;20.48;;;;;;;4.97;100.00;99864.55;1817822;78;21044;-71
2022/04/22 01:11:08;;;;;;;38.63;23.30;;;;;;;4.97;100.00;99863.66;1817285;78;21083;-71
2022/04/22 01:13:36;;;;;;;34.00;19.95;;;;;;;4.96;100.00;99861.95;1817394;78;21088;-69
2022/04/22 01:16:04;;;;;;;39.30;24.70;;;;;;;4.93;100.00;99861.56;1817555;78;21056;-71
2022/04/22 01:18:32;;;;;;;39.38;22.82;;;;;;;4.93;100.00;99863.32;1817628;78;21445;-71
2022/04/22 01:21:01;;;;;;;33.08;20.00;;;;;;;4.89;100.00;99860.34;1817445;78;21087;-70
2022/04/22 01:23:28;;;;;;;36.28;22.40;;;;;;;4.89;100.00;99863.81;1818005;78;21117;-70
2022/04/22 01:25:56;;;;;;;38.70;23.65;;;;;;;4.90;100.00;99856.83;1817620;78;21025;-71
2022/04/22 01:28:23;;;;;;;37.70;24.43;;;;;;;4.92;100.00;99860.28;1817783;78;21599;-68
2022/04/22 01:30:56;;;;;;;37.28;24.40;;;;;;;4.93;100.00;99863.32;1823131;77;21029;-70
2022/04/22 01:33:24;;;;;;;39.25;24.05;;;;;;;4.91;100.00;99859.42;1844041;77;22007;-70
2022/04/22 01:35:50;;;;;;;42.35;25.70;;;;;;;4.91;100.00;99858.57;1843784;76;21525;-71
2022/04/22 01:38:19;;;;;;;36.40;23.18;;;;;;;4.95;100.00;99858.94;1843653;77;21338;-71
2022/04/22 01:40:46;;;;;;;39.78;25.32;;;;;;;4.94;100.00;99853.28;1843708;77;21104;-70
2022/04/22 01:43:14;;;;;;;41.45;25.95;;;;;;;4.95;100.00;99860.25;1843895;77;21029;-69
2022/04/22 01:45:41;;;;;;;39.78;24.70;;;;;;;4.95;100.00;99858.48;1843992;77;21169;-72
2022/04/22 01:48:09;;;;;;;34.53;21.55;;;;;;;4.94;100.00;99859.36;1843759;76;21767;-70
2022/04/22 01:50:36;;;;;;;40.33;26.27;;;;;;;4.95;100.00;99862.86;1843897;77;21599;-70
2022/04/22 01:53:06;;;;;;;38.08;24.30;;;;;;;4.95;100.00;99864.16;1818443;77;21053;-71
2022/04/22 01:55:34;;;;;;;40.40;25.35;;;;;;;4.93;100.00;99862.02;1844193;77;21013;-71
2022/04/22 01:58:02;;;;;;;37.00;21.77;;;;;;;4.94;100.00;99863.72;1844198;77;21001;-70
2022/04/22 02:00:29;;;;;;;38.15;23.10;;;;;;;4.96;100.00;99867.17;1844188;77;21109;-71
2022/04/22 02:02:57;;;;;;;34.05;22.17;;;;;;;4.96;100.00;99863.25;1844175;77;21095;-70
2022/04/22 02:05:24;;;;;;;34.55;21.10;;;;;;;4.96;100.00;99868.02;1844086;77;22007;-71
2022/04/22 02:07:52;;;;;;;35.60;22.05;;;;;;;4.96;100.00;99876.30;1843867;77;21072;-71
2022/04/22 02:10:19;;;;;;;33.88;21.77;;;;;;;4.99;100.00;99867.10;1844518;77;21016;-70
2022/04/22 02:12:46;;;;;;;32.17;20.68;;;;;;;5.00;100.00;99873.61;1844166;77;21289;-69
2022/04/22 02:15:16;;;;;;;34.85;21.30;;;;;;;4.99;100.00;99871.91;1844023;77;21107;-70
2022/04/22 02:17:43;;;;;;;32.80;21.25;;;;;;;4.99;100.00;99874.52;1844241;77;21057;-71
2022/04/22 02:20:11;;;;;;;29.80;19.55;;;;;;;4.96;100.00;99875.00;1844064;77;21083;-70
2022/04/22 02:22:39;;;;;;;30.02;19.70;;;;;;;4.97;100.00;99874.09;1844028;77;21087;-69
2022/04/22 02:25:09;;;;;;;30.97;19.65;;;;;;;4.98;100.00;99870.61;1844205;77;22050;-71
2022/04/22 02:30:25;;;;;;;31.02;19.92;;;;;;;4.96;100.00;99867.17;1843845;77;21592;-70
2022/04/22 02:32:52;;;;;;;32.25;18.95;;;;;;;4.94;100.00;99863.27;1821054;78;21521;-70
2022/04/22 02:35:21;;;;;;;31.80;19.10;;;;;;;4.95;100.00;99869.38;1821063;77;20982;-69
2022/04/22 02:37:49;;;;;;;29.32;19.85;;;;;;;4.94;100.00;99868.94;1820964;78;21289;-69
2022/04/22 02:45:51;;;;;;;34.65;22.48;;;;;;;4.94;100.00;99876.77;1820908;78;21076;-69
2022/04/22 02:48:19;;;;;;;32.93;21.70;;;;;;;4.93;100.00;99869.84;1819467;77;21068;-70
2022/04/22 02:50:47;;;;;;;34.23;22.93;;;;;;;4.95;100.00;99880.67;1817849;78;21025;-70
2022/04/22 02:53:13;;;;;;;32.20;21.02;;;;;;;4.95;100.00;99873.30;1818136;78;21053;-70
2022/04/22 02:55:47;;;;;;;35.65;22.62;;;;;;;4.97;100.00;99873.67;1817849;78;21060;-70
2022/04/22 02:58:14;;;;;;;36.60;23.75;;;;;;;4.97;100.00;99876.70;1818081;78;21611;-70
2022/04/22 03:02:27;;;;;;;36.97;22.50;;;;;;;5.02;100.00;99873.59;1795893;79;26532;-70
2022/04/22 03:04:56;;;;;;;36.65;24.20;;;;;;;5.01;100.00;99870.55;1756547;81;20986;-69
2022/04/22 03:07:23;;;;;;;35.73;23.80;;;;;;;5.00;100.00;99877.52;1698121;81;21237;-69
2022/04/22 03:09:50;;;;;;;37.88;23.77;;;;;;;4.97;100.00;99878.01;1756426;81;21606;-70
2022/04/22 03:12:19;;;;;;;39.88;24.82;;;;;;;5.04;100.00;99875.73;1756227;81;20985;-70
2022/04/22 03:14:47;;;;;;;38.40;25.02;;;;;;;5.03;100.00;99870.08;1756502;81;21925;-68
2022/04/22 03:17:14;;;;;;;41.48;24.57;;;;;;;5.03;100.00;99877.45;1756418;81;20977;-69
2022/04/22 03:19:42;;;;;;;37.98;25.02;;;;;;;5.09;100.00;99876.50;1756475;81;21265;-68
2022/04/22 03:22:09;;;;;;;41.33;26.77;;;;;;;5.07;100.00;99886.11;1756354;81;20974;-70
2022/04/22 03:24:38;;;;;;;41.77;26.48;;;;;;;5.10;100.00;99887.34;1756462;81;21028;-68
2022/04/22 03:27:04;;;;;;;37.70;24.92;;;;;;;5.08;100.00;99887.81;1756151;81;22138;-69
2022/04/22 03:29:33;;;;;;;41.13;26.77;;;;;;;5.08;100.00;99893.03;1756291;81;21076;-69
2022/04/22 03:32:00;;;;;;;38.23;24.87;;;;;;;5.10;100.00;99888.65;1752346;81;21388;-70
2022/04/22 03:34:26;;;;;;;40.23;24.92;;;;;;;5.07;100.00;99896.55;1724840;82;21056;-70
2022/04/22 03:36:55;;;;;;;35.43;22.42;;;;;;;5.06;100.00;99896.11;1720418;83;21060;-69
2022/04/22 03:39:23;;;;;;;42.80;27.07;;;;;;;5.08;100.00;99895.64;1720507;83;21085;-69
2022/04/22 03:41:51;;;;;;;39.63;25.80;;;;;;;5.05;100.00;99893.09;1720323;83;21044;-70
2022/04/22 03:44:18;;;;;;;39.92;25.72;;;;;;;5.05;100.00;99890.48;1720472;83;21244;-69
2022/04/22 03:46:46;;;;;;;38.80;24.85;;;;;;;5.03;100.00;99897.03;1720240;82;21627;-69
2022/04/22 03:49:12;;;;;;;35.13;23.42;;;;;;;5.06;100.00;99889.59;1720625;83;21239;-69
2022/04/22 03:51:40;;;;;;;36.03;24.25;;;;;;;5.03;100.00;99900.09;1720408;83;21065;-70
2022/04/22 03:54:07;;;;;;;34.85;22.95;;;;;;;5.02;100.00;99892.72;1720483;83;21108;-70
2022/04/22 03:59:18;;;;;;;34.13;22.10;;;;;;;5.02;100.00;99899.23;1720346;83;21525;-69
2022/04/22 04:01:46;;;;;;;35.52;22.37;;;;;;;5.00;100.00;99895.80;1712797;83;21061;-69
2022/04/22 04:04:13;;;;;;;37.45;22.37;;;;;;;5.01;100.00;99896.20;1707763;84;21132;-70
2022/04/22 04:06:40;;;;;;;34.35;22.52;;;;;;;5.05;100.00;99898.32;1707638;83;21132;-69
2022/04/22 04:17:22;;;;;;;38.65;25.35;;;;;;;5.14;100.00;99899.45;1707431;84;21054;-69
2022/04/22 04:25:21;;;;;;;49.42;32.73;;;;;;;5.18;100.00;99899.83;1707100;83;21077;-68
2022/04/22 04:27:47;;;;;;;47.83;31.33;;;;;;;5.21;100.00;99907.59;1707228;83;21089;-69
2022/04/22 04:30:16;;;;;;;47.30;25.90;;;;;;;5.26;100.00;99901.83;1707276;84;21458;-69
2022/04/22 04:32:43;;;;;;;50.80;34.07;;;;;;;5.23;100.00;99900.59;1712936;83;21065;-70
2022/04/22 04:35:09;;;;;;;53.98;34.25;;;;;;;5.28;100.00;99914.02;1713283;82;21285;-71
2022/04/22 04:37:44;;;;;;;48.17;30.95;;;;;;;5.29;100.00;99911.38;1712968;82;21498;-71
2022/04/22 04:40:12;;;;;;;51.53;31.55;;;;;;;5.33;100.00;99910.41;1713184;82;21010;-71
2022/04/22 04:42:39;;;;;;;50.70;32.23;;;;;;;5.34;100.00;99909.98;1713007;83;21108;-70
2022/04/22 04:45:09;;;;;;;49.77;33.58;;;;;;;5.37;100.00;99917.75;1713095;82;21065;-70
2022/04/22 04:47:41;;;;;;;51.28;32.73;;;;;;;5.41;100.00;99911.59;1713184;82;21121;-70
2022/04/22 04:50:10;;;;;;;42.50;24.85;;;;;;;5.43;100.00;99915.89;1713239;82;21117;-69
2022/04/22 04:52:39;;;;;;;48.30;28.62;;;;;;;5.44;100.00;99932.41;1713098;83;21113;-71
2022/04/22 04:55:08;;;;;;;49.45;31.27;;;;;;;5.45;100.00;99922.36;1713136;82;21022;-70
2022/04/22 04:57:35;;;;;;;46.88;29.87;;;;;;;5.49;100.00;99909.67;1713157;83;21038;-71
2022/04/22 05:00:08;;;;;;;46.50;29.90;;;;;;;5.53;100.00;99927.46;1713441;83;21249;-70
2022/04/22 05:02:38;;;;;;;45.30;28.75;;;;;;;5.54;100.00;99926.11;1684418;84;21034;-69
2022/04/22 05:05:09;;;;;;;47.05;30.15;;;;;;;5.56;100.00;99926.94;1684511;84;21042;-69
2022/04/22 05:07:53;;;;;;;45.08;29.35;;;;;;;5.59;100.00;99932.13;1684610;85;21060;-69
2022/04/22 05:10:20;;;;;;;47.95;30.40;;;;;;;5.61;100.00;99927.73;1684735;85;21045;-71
2022/04/22 05:12:48;;;;;;;46.18;30.08;;;;;;;5.63;100.00;99932.91;1684493;84;21549;-70
2022/04/22 05:15:17;;;;;;;50.70;32.75;;;;;;;5.61;100.00;99935.57;1684779;84;21097;-70
2022/04/22 05:17:47;;;;;;;47.93;32.13;;;;;;;5.63;100.00;99937.67;1684364;85;21085;-70
2022/04/22 05:20:16;;;;;;;51.37;31.75;;;;;;;5.66;100.00;99929.80;1684458;85;21072;-70
2022/04/22 05:22:45;;;;;;;50.10;31.48;;;;;;;5.70;100.00;99934.95;1674927;85;21259;-70
2022/04/22 05:25:13;;;;;;;44.53;29.30;;;;;;;5.72;100.00;99934.48;1684863;84;21048;-70
2022/04/22 05:27:42;;;;;;;44.03;28.55;;;;;;;5.72;100.00;99937.09;1684715;84;21058;-70
2022/04/22 05:32:56;;;;;;;40.43;27.55;;;;;;;5.73;100.00;99934.88;1684672;85;21065;-70
2022/04/22 05:35:27;;;;;;;46.10;30.17;;;;;;;5.73;100.00;99929.66;1684635;85;21026;-70
2022/04/22 05:38:05;;;;;;;39.05;26.70;;;;;;;5.75;100.00;99931.80;1684770;85;21879;-70
2022/04/22 05:40:35;;;;;;;38.08;26.62;;;;;;;5.80;100.00;99943.04;1684442;85;21053;-70
2022/04/22 05:43:06;;;;;;;38.53;26.40;;;;;;;5.84;100.00;99939.44;1684721;84;21049;-69
2022/04/22 05:45:35;;;;;;;;;;;;;;;5.89;100.00;99940.23;1687258;84;21046;-70
2022/04/22 05:48:01;;;;;;;39.00;25.60;;;;;;;5.91;100.00;99943.64;1684452;85;20172;-70
2022/04/22 05:50:29;;;;;;;37.93;25.20;;;;;;;5.93;100.00;99947.09;1684553;84;21050;-71
2022/04/22 05:52:57;;;;;;;34.48;23.77;;;;;;;5.95;100.00;99955.80;1684493;84;21129;-70
2022/04/22 05:55:27;;;;;;;34.65;24.15;;;;;;;5.97;100.00;99947.94;1684450;84;21027;-70
2022/04/22 05:57:56;;;;;;;37.42;24.32;;;;;;;5.95;100.00;99956.25;1684562;84;21081;-71
2022/04/22 06:00:26;;;;;;;41.20;27.07;;;;;;;5.97;100.00;99960.55;1688961;83;21129;-71
2022/04/22 06:02:54;;;;;;;35.90;24.18;;;;;;;6.00;100.00;99960.93;1723087;82;21045;-70
2022/04/22 06:05:22;;;;;;;40.17;26.90;;;;;;;6.04;100.00;99951.69;1725979;82;21093;-70
2022/04/22 06:10:32;;;;;;;39.40;27.17;;;;;;;6.12;100.00;99959.80;1649059;82;21108;-70
2022/04/22 06:13:01;;;;;;;43.63;27.73;;;;;;;6.13;100.00;99964.16;1725872;82;21308;-71
2022/04/22 06:15:29;;;;;;;40.70;27.22;;;;;;;6.17;100.00;99968.44;1725844;82;21065;-69
2022/04/22 06:17:58;;;;;;;40.20;27.95;;;;;;;6.18;100.00;99968.38;1725557;82;21108;-70
2022/04/22 06:20:26;;;;;;;38.53;28.50;;;;;;;6.24;100.00;99967.41;1725767;82;21568;-72
2022/04/22 06:22:54;;;;;;;43.25;30.62;;;;;;;6.25;100.00;99970.42;1726053;83;21561;-69
2022/04/22 06:25:23;;;;;;;43.28;29.72;;;;;;;6.30;100.00;99969.86;1725825;82;21057;-70
2022/04/22 06:27:50;;;;;;;43.48;29.27;;;;;;;6.30;100.00;99975.98;1725855;83;21128;-69
2022/04/22 06:30:21;;;;;;;42.62;29.80;;;;;;;6.28;100.00;99968.61;1725815;83;21140;-70
2022/04/22 06:32:51;;;;;;;35.92;25.32;;;;;;;6.31;100.00;99971.61;1696889;84;21069;-71
2022/04/22 06:35:22;;;;;;;41.33;29.15;;;;;;;6.35;100.00;99975.88;1696749;84;21067;-70
2022/04/22 06:37:51;;;;;;;42.25;29.55;;;;;;;6.38;100.00;99973.64;1696891;84;21100;-71
2022/04/22 06:45:54;;;;;;;36.40;24.65;;;;;;;6.48;100.00;99985.15;1696785;84;21002;-71
2022/04/22 06:48:30;;;;;;;39.80;28.17;;;;;;;6.53;100.00;99984.19;1638076;86;21521;-70
2022/04/22 06:50:56;;;;;;;37.50;25.60;;;;;;;6.57;100.00;99992.39;1646035;86;21102;-70
2022/04/22 06:53:24;;;;;;;36.63;26.12;;;;;;;6.56;100.00;99985.45;1646188;87;21152;-71
2022/04/22 06:55:53;;;;;;;41.15;28.80;;;;;;;6.58;100.00;99987.55;1646134;87;21558;-70
2022/04/22 06:58:21;;;;;;;42.98;29.30;;;;;;;6.63;100.00;99985.72;1646510;86;21064;-70
2022/04/22 07:00:50;;;;;;;44.65;29.55;;;;;;;6.68;100.00;99987.77;1646444;87;21092;-70
2022/04/22 07:03:19;;;;;;;39.63;28.55;;;;;;;6.73;100.00;99988.06;1643975;86;21129;-72
2022/04/22 07:05:48;;;;;;;37.85;26.30;;;;;;;6.72;100.00;99993.36;1643799;87;21214;-70
2022/04/22 07:08:17;;;;;;;41.50;28.70;;;;;;;6.75;100.00;99995.03;1650572;86;21608;-71
2022/04/22 07:10:48;;;;;;;38.80;28.00;;;;;;;6.77;100.00;99996.72;1650749;86;21035;-71
2022/04/22 07:13:17;;;;;;;45.55;29.57;;;;;;;6.79;100.00;99988.84;1654954;85;21195;-72
2022/04/22 07:15:47;;;;;;;43.30;30.02;;;;;;;6.82;100.00;99989.61;1678338;85;21674;-71
2022/04/22 07:18:15;;;;;;;42.15;29.32;;;;;;;6.81;100.00;99994.45;1678301;85;21203;-72
2022/04/22 07:20:47;;;;;;;44.98;30.37;;;;;;;6.83;100.00;100001.81;1678203;85;21090;-71
2022/04/22 07:23:15;;;;;;;43.25;30.08;;;;;;;6.84;100.00;100003.53;1678020;85;21060;-71
2022/04/22 07:25:46;;;;;;;46.95;31.65;;;;;;;6.85;100.00;100013.09;1678454;85;21554;-70
2022/04/22 07:28:16;;;;;;;45.30;30.48;;;;;;;6.89;100.00;100008.20;1678387;85;21117;-70
2022/04/22 07:30:46;;;;;;;48.15;31.73;;;;;;;6.90;100.00;100001.20;1676855;84;22091;-71
2022/04/22 07:33:12;;;;;;;45.05;31.25;;;;;;;6.91;100.00;100006.41;1668236;86;21149;-71
2022/04/22 07:35:42;;;;;;;47.15;32.50;;;;;;;6.96;100.00;99994.97;1668991;86;21092;-71
2022/04/22 07:38:11;;;;;;;44.98;32.30;;;;;;;7.00;100.00;100003.17;1668656;86;21096;-71
2022/04/22 07:40:40;;;;;;;43.70;31.87;;;;;;;7.04;100.00;99999.55;1669088;85;21629;-72
2022/04/22 07:48:40;;;;;;;51.53;32.13;;;;;;;7.10;100.00;100004.65;1668725;86;21154;-72
2022/04/22 07:51:09;;;;;;;50.35;33.20;;;;;;;7.13;100.00;100005.87;1668904;86;21023;-72
2022/04/22 07:53:36;;;;;;;42.73;31.95;;;;;;;7.17;100.00;100003.59;1669014;86;20994;-72
2022/04/22 07:56:09;;;;;;;43.73;27.10;;;;;;;7.14;100.00;100009.77;1668712;86;21545;-72
2022/04/22 07:58:36;;;;;;;41.33;29.70;;;;;;;7.18;100.00;100011.88;1668827;86;21101;-71
2022/04/22 08:01:04;;;;;;;47.05;34.80;;;;;;;7.16;100.00;100007.13;1668909;86;21103;-70
2022/04/22 08:03:32;;;;;;;46.08;32.65;;;;;;;7.13;100.00;100008.48;1664502;85;21501;-71
2022/04/22 08:05:59;;;;;;;48.45;33.35;;;;;;;7.11;100.00;100009.00;1663344;86;21089;-71
2022/04/22 08:08:31;;;;;;;46.68;31.73;;;;;;;7.13;100.00;100015.92;1663421;86;21061;-72
2022/04/22 08:11:03;;;;;;;50.33;35.35;;;;;;;7.19;100.00;100012.27;1712039;83;21561;-71
2022/04/22 08:13:32;;;;;;;52.62;35.90;;;;;;;7.15;100.00;100011.94;1684870;83;21050;-71
2022/04/22 08:16:01;;;;;;;54.53;34.03;;;;;;;7.16;100.00;100008.44;1712767;83;21061;-72
2022/04/22 08:18:29;;;;;;;50.92;34.03;;;;;;;7.14;100.00;100008.92;1712255;83;21108;-71
2022/04/22 08:20:57;;;;;;;50.25;33.45;;;;;;;7.13;100.00;100015.03;1712403;83;21145;-70
2022/04/22 08:23:24;;;;;;;45.75;32.53;;;;;;;7.07;100.00;99999.50;1712314;83;21045;-71
2022/04/22 08:25:53;;;;;;;50.12;33.38;;;;;;;7.08;100.00;100016.46;1712255;83;21062;-70
2022/04/22 08:28:20;;;;;;;44.65;29.63;;;;;;;7.09;100.00;100010.80;1684321;82;21080;-69
2022/04/22 08:30:49;;;;;;;40.73;23.95;;;;;;;7.08;100.00;100011.22;1712553;83;21073;-71
2022/04/22 08:33:17;;;;;;;43.90;30.08;;;;;;;7.09;100.00;100017.34;1712570;83;21045;-71
2022/04/22 08:35:44;;;;;;;38.90;25.70;;;;;;;7.05;100.00;100019.63;1712467;83;21054;-71
2022/04/22 08:38:12;;;;;;;47.48;31.30;;;;;;;6.99;100.00;100029.77;1712212;83;21022;-71
2022/04/22 08:40:40;;;;;;;46.37;31.65;;;;;;;6.99;100.00;100023.69;1712236;83;21348;-71
2022/04/22 08:43:08;;;;;;;44.10;28.23;;;;;;;7.04;100.00;100027.93;1684238;83;21072;-71
2022/04/22 08:45:36;;;;;;;50.35;32.20;;;;;;;7.05;100.00;100027.47;1712470;83;21104;-71
2022/04/22 08:50:56;;;;;;;50.73;32.98;;;;;;;7.05;100.00;100024.86;1712442;83;21026;-72
2022/04/22 08:53:25;;;;;;;52.10;32.10;;;;;;;7.07;100.00;100021.30;1712153;83;21069;-71
2022/04/22 08:55:57;;;;;;;51.83;33.38;;;;;;;7.10;100.00;100030.84;1712362;83;21065;-71
2022/04/22 08:58:29;;;;;;;48.17;29.80;;;;;;;7.08;100.00;100033.94;1712514;83;21608;-70
2022/04/22 09:00:58;;;;;;;54.30;34.95;;;;;;;7.06;100.00;100035.73;1712304;83;21042;-71
2022/04/22 09:03:29;;;;;;;47.90;30.80;;;;;;;7.13;100.00;100032.95;1712173;83;21072;-70
2022/04/22 09:06:02;;;;;;;44.60;29.45;;;;;;;7.09;100.00;100033.06;1712522;83;21061;-69
2022/04/22 09:08:29;;;;;;;38.78;21.57;;;;;;;7.08;100.00;100043.95;1712265;83;21073;-71
2022/04/22 09:10:57;;;;;;;44.05;27.15;;;;;;;7.06;100.00;100037.03;1712373;83;21137;-71
2022/04/22 09:13:27;;;;;;;52.35;32.10;;;;;;;7.07;100.00;100041.39;1712454;83;21561;-70
2022/04/22 09:15:57;;;;;;;46.28;26.57;;;;;;;7.08;100.00;100041.79;1712138;83;21633;-69
2022/04/22 09:18:25;;;;;;;42.35;25.75;;;;;;;7.05;100.00;100043.19;1684328;83;21649;-70
2022/04/22 09:20:56;;;;;;;56.25;32.03;;;;;;;7.08;100.00;100057.50;1712489;83;21527;-71
2022/04/22 09:23:31;;;;;;;50.90;32.53;;;;;;;7.06;100.00;100039.66;1712372;83;21109;-70
2022/04/22 09:25:59;;;;;;;48.65;31.35;;;;;;;7.09;100.00;100047.45;1712401;83;21085;-71
2022/04/22 09:28:26;;;;;;;54.23;33.63;;;;;;;7.06;100.00;100044.89;1712574;82;21061;-70
2022/04/22 09:31:00;;;;;;;49.23;28.85;;;;;;;7.03;100.00;100048.91;1714725;83;20985;-70
2022/04/22 09:33:44;;;;;;;45.00;27.07;;;;;;;7.01;100.00;100045.45;1718434;83;21059;-71
2022/04/22 09:45:03;;;;;;;53.58;34.13;;;;;;;7.12;100.00;100054.78;1718436;83;21053;-70
2022/04/22 09:47:32;;;;;;;46.02;31.10;;;;;;;7.12;100.00;100059.16;1718294;83;21615;-70
2022/04/22 09:50:05;;;;;;;49.90;33.80;;;;;;;7.15;100.00;100063.00;1718737;83;21037;-70
2022/04/22 09:52:34;;;;;;;50.83;33.15;;;;;;;7.16;100.00;100064.74;1718175;83;21080;-71
2022/04/22 09:55:04;;;;;;;47.25;30.70;;;;;;;7.16;100.00;100061.27;1718618;83;21036;-71
2022/04/22 09:57:52;;;;;;;46.83;30.43;;;;;;;7.21;100.00;100060.25;1718278;83;21060;-70
2022/04/22 10:00:21;;;;;;;38.92;23.60;;;;;;;7.27;100.00;100064.03;1718500;83;21920;-71
2022/04/22 10:02:52;;;;;;;47.50;32.10;;;;;;;7.31;100.00;100064.34;1717885;83;21808;-71
2022/04/22 10:05:24;;;;;;;46.45;29.45;;;;;;;7.36;100.00;100074.71;1719009;83;21103;-69
2022/04/22 10:07:57;;;;;;;51.95;33.28;;;;;;;7.36;100.00;100072.09;1718218;83;21126;-70
2022/04/22 10:10:34;;;;;;;51.88;32.33;;;;;;;7.40;100.00;100080.30;1718633;82;21056;-71
2022/04/22 10:13:05;;;;;;;49.03;31.90;;;;;;;7.41;100.00;100074.59;1718229;83;21009;-70
2022/04/22 10:15:39;;;;;;;52.27;30.92;;;;;;;7.47;100.00;100071.84;1718531;83;22034;-70
2022/04/22 10:18:11;;;;;;;50.08;31.87;;;;;;;7.50;100.00;100082.23;1737021;82;21028;-70
2022/04/22 10:20:40;;;;;;;48.70;32.78;;;;;;;7.60;100.00;100085.05;1718491;82;21008;-71
2022/04/22 10:23:09;;;;;;;48.85;30.60;;;;;;;7.61;100.00;100081.97;1718087;82;21451;-72
2022/04/22 10:25:38;;;;;;;44.45;28.45;;;;;;;7.70;100.00;100073.41;1718306;83;21052;-72
2022/04/22 10:28:10;;;;;;;40.55;26.15;;;;;;;7.73;100.00;100077.28;1718246;82;21772;-73
2022/04/22 10:30:40;;;;;;;;;;;;;;;7.72;100.00;100080.79;1720011;83;21069;-71
2022/04/22 10:33:09;;;;;;;41.42;27.30;;;;;;;7.87;100.00;100089.17;1677628;85;20208;-71
2022/04/22 10:35:40;;;;;;;43.08;28.42;;;;;;;7.83;100.00;100084.45;1712284;83;21073;-71
2022/04/22 10:38:30;;;;;;;43.78;29.15;;;;;;;7.85;100.00;100090.97;1712378;82;21074;-69
2022/04/22 10:41:03;;;;;;;43.90;29.55;;;;;;;7.88;100.00;100086.95;1712710;83;21212;-71
2022/04/22 10:43:29;;;;;;;47.17;32.25;;;;;;;7.96;100.00;100084.53;1712129;83;21026;-70
2022/04/22 10:49:12;;;;;;;36.88;24.32;;;;;;;8.08;100.00;100085.96;1712216;83;21074;-70
2022/04/22 10:52:09;;;;;;;39.78;26.30;;;;;;;8.13;100.00;100089.31;1705263;83;21089;-70
2022/04/22 10:54:59;;;;;;;38.30;28.45;;;;;;;8.16;100.00;100087.91;1711624;83;21573;-71
2022/04/22 10:57:31;;;;;;;41.63;27.80;;;;;;;8.26;100.00;100091.58;1712294;83;21041;-70
2022/04/22 11:00:11;;;;;;;;;;;;;;;8.31;100.00;100087.09;1715169;83;21050;-71
2022/04/22 11:02:43;;;;;;;37.48;24.90;;;;;;;8.38;100.00;100086.01;1712405;83;26559;-71
2022/04/22 11:05:30;;;;;;;47.08;28.85;;;;;;;8.38;100.00;100083.38;1719210;83;21119;-72
2022/04/22 11:07:58;;;;;;;36.85;26.12;;;;;;;8.43;100.00;100085.91;1720468;83;21060;-71
2022/04/22 11:10:51;;;;;;;35.17;23.22;;;;;;;8.49;100.00;100081.34;1720496;83;21104;-71
2022/04/22 11:13:34;;;;;;;37.35;25.68;;;;;;;8.55;100.00;100070.64;1720480;83;21077;-70
2022/04/22 11:16:32;;;;;;;40.12;27.50;;;;;;;8.63;100.00;100076.11;1696380;83;21076;-70
2022/04/22 11:19:21;;;;;;;37.58;25.65;;;;;;;8.70;100.00;100071.11;1720486;82;21140;-71
2022/04/22 11:21:56;;;;;;;37.90;25.60;;;;;;;8.74;100.00;100075.34;1720550;82;21053;-70
2022/04/22 11:24:34;;;;;;;35.20;23.75;;;;;;;8.78;100.00;100069.09;1720043;83;21061;-71
2022/04/22 11:27:13;;;;;;;39.95;25.68;;;;;;;8.80;100.00;100063.34;1720735;83;21517;-72
2022/04/22 11:29:43;;;;;;;41.35;26.68;;;;;;;8.84;100.00;100067.61;1720782;83;21101;-70
2022/04/22 11:32:23;;;;;;;35.43;26.45;;;;;;;8.86;100.00;100072.36;1721043;83;21116;-71
2022/04/22 11:35:13;;;;;;;35.73;24.30;;;;;;;8.88;100.00;100067.92;1721138;83;21148;-71
2022/04/22 11:37:40;;;;;;;36.93;24.50;;;;;;;8.91;100.00;100077.02;1720778;82;21096;-70
2022/04/22 11:40:08;;;;;;;40.40;24.95;;;;;;;8.91;100.00;100065.19;1720815;83;21033;-72
2022/04/22 11:42:45;;;;;;;34.30;23.50;;;;;;;8.92;100.00;100070.84;1720640;82;21060;-70
2022/04/22 11:45:14;;;;;;;31.87;23.05;;;;;;;8.97;100.00;100065.02;1721013;83;21134;-71
2022/04/22 11:47:43;;;;;;;32.75;23.38;;;;;;;9.01;100.00;100061.36;1720577;82;21499;-70
2022/04/22 11:50:19;;;;;;;37.25;24.27;;;;;;;9.12;100.00;100062.80;1720863;82;21537;-72
2022/04/22 11:52:56;;;;;;;33.75;23.07;;;;;;;9.21;100.00;100057.25;1720564;83;21073;-70
2022/04/22 11:55:24;;;;;;;37.00;24.95;;;;;;;9.30;100.00;100056.09;1720790;82;21001;-70
2022/04/22 11:57:51;;;;;;;35.58;25.62;;;;;;;9.37;100.00;100058.45;1720739;83;21040;-71
2022/04/22 12:05:53;;;;;;;30.77;22.70;;;;;;;9.60;100.00;100059.46;1720653;82;21010;-71
2022/04/22 12:08:21;;;;;;;27.95;21.10;;;;;;;9.64;100.00;100058.45;1720551;82;21073;-71
2022/04/22 12:10:51;;;;;;;34.85;23.65;;;;;;;9.69;100.00;100056.52;1720771;83;21072;-69
2022/04/22 12:13:18;;;;;;;31.62;22.07;;;;;;;9.69;100.00;100056.52;1720432;83;21356;-70
2022/04/22 12:15:48;;;;;;;29.65;22.58;;;;;;;9.74;100.00;100051.95;1720745;83;21077;-71
2022/04/22 12:18:36;;;;;;;32.03;23.00;;;;;;;9.75;100.00;100048.85;1720590;82;21025;-68
2022/04/22 12:21:06;;;;;;;32.42;21.87;;;;;;;9.81;100.00;100056.54;1720509;83;21576;-70
2022/04/22 12:23:39;;;;;;;33.75;24.25;;;;;;;9.78;100.00;100050.94;1720464;82;21076;-71
2022/04/22 12:26:21;;;;;;;30.55;21.20;;;;;;;9.80;100.00;100037.71;1720626;83;21855;-72
2022/04/22 12:29:12;;;;;;;26.62;19.30;;;;;;;9.86;100.00;100050.19;1720554;83;21557;-71
2022/04/22 12:31:43;;;;;;;30.57;19.75;;;;;;;9.88;100.00;100051.00;1723402;83;21088;-71
2022/04/22 12:34:31;;;;;;;27.77;20.60;;;;;;;9.84;100.00;100045.44;1725863;83;21112;-70
2022/04/22 12:37:00;;;;;;;29.85;21.52;;;;;;;9.78;100.00;100040.41;1691117;84;21068;-70
2022/04/22 12:39:39;;;;;;;25.65;20.12;;;;;;;9.77;100.00;100037.83;1673597;85;21121;-70